Time;durP1;ratioP1;P1;durP2;ratioP2;P2;SDS_P1;SDS_P2;PMS_P1;PMS_P2;Temp;Humidity;BMP_temperature;BMP_pressure;BME280_temperature;BME280_humidity;BME280_pressure;Samples;Min_cycle;Max_cycle;Signal;HPM_P1;HPM_P2
2023/07/24 00:00:40;;;;;;;9.97;8.27;;;21.40;99.90;;;;;;5041877;28;20237;-69
2023/07/24 00:03:06;;;;;;;9.30;7.70;;;21.30;99.90;;;;;;5040650;28;20170;-69
2023/07/24 00:05:31;;;;;;;8.30;7.37;;;21.20;99.90;;;;;;5043619;28;20402;-68
2023/07/24 00:07:57;;;;;;;9.10;7.80;;;21.10;99.90;;;;;;5043374;28;20214;-68
2023/07/24 00:10:23;;;;;;;9.93;8.37;;;21.10;99.90;;;;;;5040792;28;20654;-69
2023/07/24 00:12:48;;;;;;;8.83;7.80;;;20.80;99.90;;;;;;5043412;28;20171;-68
2023/07/24 00:15:14;;;;;;;12.40;8.90;;;20.90;99.90;;;;;;5042612;28;20164;-68
2023/07/24 00:17:39;;;;;;;11.03;8.57;;;21.00;99.90;;;;;;5054837;22;20586;-68
2023/07/24 00:20:06;;;;;;;9.77;8.30;;;21.10;99.90;;;;;;5051498;28;20167;-68
2023/07/24 00:22:32;;;;;;;11.90;8.97;;;21.20;99.90;;;;;;5051493;28;20186;-68
2023/07/24 00:24:57;;;;;;;12.77;10.10;;;21.20;99.90;;;;;;5051963;28;20812;-68
2023/07/24 00:27:23;;;;;;;13.53;9.20;;;21.20;99.90;;;;;;5051766;28;20178;-68
2023/07/24 00:29:49;;;;;;;9.77;8.20;;;21.10;99.90;;;;;;5043598;28;20167;-69
2023/07/24 00:32:15;;;;;;;11.43;9.30;;;21.10;99.90;;;;;;5040489;28;20175;-70
2023/07/24 00:34:40;;;;;;;10.40;9.40;;;21.10;99.90;;;;;;5043162;28;20404;-69
2023/07/24 00:37:06;;;;;;;9.87;8.10;;;20.70;99.90;;;;;;5040693;28;20181;-68
2023/07/24 00:39:32;;;;;;;11.97;8.43;;;20.30;99.90;;;;;;5041407;28;20551;-69
2023/07/24 00:41:57;;;;;;;11.73;8.67;;;20.00;99.90;;;;;;5041151;28;20456;-69
2023/07/24 00:44:23;;;;;;;10.33;8.13;;;19.80;99.90;;;;;;5042931;28;20167;-69
2023/07/24 00:46:49;;;;;;;8.80;7.37;;;19.70;99.90;;;;;;5042635;28;20224;-69
2023/07/24 00:49:15;;;;;;;12.40;9.10;;;19.80;99.90;;;;;;5044200;28;20253;-68
2023/07/24 00:51:40;;;;;;;9.00;8.00;;;19.90;99.90;;;;;;5046572;28;20402;-68
2023/07/24 00:54:07;;;;;;;9.17;8.17;;;19.90;99.90;;;;;;5045279;28;20176;-69
2023/07/24 00:56:34;;;;;;;9.70;7.87;;;20.00;99.90;;;;;;5045563;28;20239;-69
2023/07/24 00:59:00;;;;;;;11.20;8.20;;;20.10;99.90;;;;;;5043274;28;20530;-68
2023/07/24 01:01:26;;;;;;;9.53;8.03;;;20.00;99.90;;;;;;5045451;28;20448;-69
2023/07/24 01:03:52;;;;;;;8.93;8.03;;;19.80;99.90;;;;;;5044534;28;20406;-69
2023/07/24 01:06:18;;;;;;;11.60;8.23;;;19.60;99.90;;;;;;5046062;28;20818;-69
2023/07/24 01:08:44;;;;;;;8.90;8.00;;;19.50;99.90;;;;;;5042833;28;20472;-68
2023/07/24 01:11:18;;;;;;;8.83;7.90;;;19.40;99.90;;;;;;5044110;28;20206;-69
2023/07/24 01:14:10;;;;;;;8.90;7.67;;;19.40;99.90;;;;;;5044755;28;20186;-69
2023/07/24 01:16:42;;;;;;;9.87;8.67;;;19.40;99.90;;;;;;5039921;28;20436;-69
2023/07/24 01:19:40;;;;;;;9.27;7.70;;;19.30;99.90;;;;;;5039400;28;20569;-69
2023/07/24 01:22:29;;;;;;;10.23;8.30;;;19.00;99.90;;;;;;5042830;28;20536;-68
2023/07/24 01:25:06;;;;;;;11.57;8.90;;;19.10;99.90;;;;;;5040434;28;20394;-68
2023/07/24 01:27:32;;;;;;;9.33;8.33;;;19.20;99.90;;;;;;5040287;28;20916;-69
2023/07/24 01:29:57;;;;;;;8.50;7.20;;;19.40;99.90;;;;;;5045480;28;20406;-69
2023/07/24 01:32:23;;;;;;;9.30;7.50;;;19.50;99.90;;;;;;5043311;28;20232;-68
2023/07/24 01:34:49;;;;;;;9.47;7.70;;;19.50;99.90;;;;;;5045099;28;20202;-68
2023/07/24 01:37:16;;;;;;;9.30;8.10;;;19.60;99.90;;;;;;5044517;28;20175;-69
2023/07/24 01:39:43;;;;;;;8.70;7.53;;;19.70;99.90;;;;;;5042952;28;20435;-68
2023/07/24 01:42:09;;;;;;;9.27;7.97;;;19.70;99.90;;;;;;5042368;28;20937;-68
2023/07/24 01:44:35;;;;;;;10.87;8.37;;;19.80;99.90;;;;;;5045427;28;20408;-68
2023/07/24 01:47:00;;;;;;;11.10;8.83;;;19.40;99.90;;;;;;5042319;28;20893;-69
2023/07/24 01:49:26;;;;;;;9.40;8.20;;;19.60;99.90;;;;;;5042488;28;20745;-69
2023/07/24 01:51:51;;;;;;;10.13;8.90;;;19.70;99.90;;;;;;5044676;28;20175;-69
2023/07/24 01:54:17;;;;;;;13.23;9.60;;;19.70;99.90;;;;;;5044883;28;20543;-68
2023/07/24 01:56:43;;;;;;;12.20;8.70;;;19.60;99.90;;;;;;5043317;28;20163;-69
2023/07/24 01:59:09;;;;;;;10.00;8.10;;;19.70;99.90;;;;;;5040669;28;20621;-69
2023/07/24 02:01:35;;;;;;;10.90;8.60;;;19.60;99.90;;;;;;5043408;28;20545;-67
2023/07/24 02:04:01;;;;;;;9.60;7.93;;;19.70;99.90;;;;;;5043950;28;20225;-68
2023/07/24 02:06:26;;;;;;;11.10;8.40;;;20.00;99.90;;;;;;5044161;28;20198;-68
2023/07/24 02:08:52;;;;;;;9.50;8.47;;;20.00;99.90;;;;;;5045695;28;20982;-68
2023/07/24 02:11:18;;;;;;;9.67;8.57;;;20.00;99.90;;;;;;5044441;28;20221;-68
2023/07/24 02:13:46;;;;;;;10.30;8.03;;;20.00;99.90;;;;;;5043611;28;20713;-69
2023/07/24 02:16:13;;;;;;;13.57;9.37;;;20.20;99.90;;;;;;5042181;28;20406;-69
2023/07/24 02:18:43;;;;;;;11.03;8.67;;;20.10;99.90;;;;;;5044323;28;20452;-68
2023/07/24 02:21:09;;;;;;;10.20;7.97;;;20.30;99.90;;;;;;5042932;28;20464;-68
2023/07/24 02:23:35;;;;;;;9.33;8.33;;;20.30;99.90;;;;;;5041613;28;20500;-69
2023/07/24 02:26:00;;;;;;;8.77;7.87;;;20.20;99.90;;;;;;5040986;28;20175;-68
2023/07/24 02:28:26;;;;;;;11.00;8.40;;;20.20;99.90;;;;;;5041577;28;20449;-68
2023/07/24 02:30:55;;;;;;;10.10;8.70;;;20.00;99.90;;;;;;5043242;28;20261;-69
2023/07/24 02:33:21;;;;;;;9.03;8.13;;;20.00;99.90;;;;;;5042943;28;20228;-68
2023/07/24 02:35:47;;;;;;;9.40;8.17;;;20.00;99.90;;;;;;5044175;28;20932;-69
2023/07/24 02:38:12;;;;;;;9.30;8.30;;;19.90;99.90;;;;;;5041776;28;20441;-68
2023/07/24 02:40:40;;;;;;;9.93;8.20;;;20.10;99.90;;;;;;5043309;28;20691;-68
2023/07/24 02:43:06;;;;;;;10.10;8.00;;;20.20;99.90;;;;;;5041600;28;20170;-68
2023/07/24 02:45:34;;;;;;;10.17;8.03;;;20.10;99.90;;;;;;5041333;28;20404;-68
2023/07/24 02:48:01;;;;;;;10.40;8.40;;;20.00;99.90;;;;;;5040772;28;20665;-68
2023/07/24 02:50:27;;;;;;;9.23;8.20;;;20.00;99.90;;;;;;5042326;28;20905;-68
2023/07/24 02:52:53;;;;;;;9.13;7.43;;;20.20;99.90;;;;;;5042973;28;20505;-68
2023/07/24 02:55:18;;;;;;;10.07;9.00;;;20.20;99.90;;;;;;5043745;28;20167;-68
2023/07/24 02:57:44;;;;;;;8.27;7.40;;;20.20;99.90;;;;;;5042766;28;20719;-69
2023/07/24 03:00:10;;;;;;;12.03;8.87;;;20.20;99.90;;;;;;5041162;28;20172;-68
2023/07/24 03:02:35;;;;;;;9.10;8.13;;;20.20;99.90;;;;;;5042557;28;20586;-69
2023/07/24 03:05:02;;;;;;;10.40;8.40;;;20.20;99.90;;;;;;5042351;28;20402;-69
2023/07/24 03:07:27;;;;;;;10.40;8.13;;;20.20;99.90;;;;;;5043635;28;20201;-69
2023/07/24 03:09:53;;;;;;;9.60;7.67;;;20.10;99.90;;;;;;5040133;28;20406;-68
2023/07/24 03:12:18;;;;;;;9.43;8.43;;;20.00;99.90;;;;;;5041163;28;20237;-69
2023/07/24 03:14:44;;;;;;;9.97;7.90;;;19.90;99.90;;;;;;5041431;28;20305;-68
2023/07/24 03:17:09;;;;;;;8.50;7.70;;;20.00;99.90;;;;;;5041035;28;20167;-69
2023/07/24 03:19:35;;;;;;;9.77;7.67;;;19.80;99.90;;;;;;5042790;28;20195;-68
2023/07/24 03:22:00;;;;;;;10.63;8.37;;;19.70;99.90;;;;;;5042266;28;20198;-68
2023/07/24 03:24:26;;;;;;;11.83;8.73;;;19.50;99.90;;;;;;5043638;28;20656;-69
2023/07/24 03:26:51;;;;;;;9.90;7.87;;;19.30;99.90;;;;;;5041597;28;20177;-68
2023/07/24 03:29:17;;;;;;;9.33;8.10;;;19.30;99.90;;;;;;5041366;28;20199;-69
2023/07/24 03:31:42;;;;;;;9.53;7.93;;;19.30;99.90;;;;;;5041429;28;20491;-68
2023/07/24 03:34:08;;;;;;;9.93;8.10;;;19.10;99.90;;;;;;5043073;28;20217;-68
2023/07/24 03:36:35;;;;;;;9.73;8.07;;;19.20;99.90;;;;;;5042441;28;20201;-68
2023/07/24 03:39:01;;;;;;;10.00;7.60;;;19.30;99.90;;;;;;5039280;28;20191;-68
2023/07/24 03:41:26;;;;;;;9.43;8.30;;;19.40;99.90;;;;;;5040603;28;20547;-68
2023/07/24 03:43:52;;;;;;;9.80;8.40;;;19.50;99.90;;;;;;5043266;28;20660;-69
2023/07/24 03:46:17;;;;;;;9.17;7.40;;;19.60;99.90;;;;;;5040561;28;20520;-70
2023/07/24 03:48:43;;;;;;;10.70;8.30;;;19.70;99.90;;;;;;5043368;28;20540;-69
2023/07/24 03:51:08;;;;;;;8.93;8.00;;;19.70;99.90;;;;;;5041522;28;20629;-69
2023/07/24 03:53:34;;;;;;;10.50;8.00;;;19.80;99.90;;;;;;5042411;28;20235;-68
2023/07/24 03:56:00;;;;;;;11.50;8.30;;;19.80;99.90;;;;;;5038579;28;20634;-69
2023/07/24 03:58:25;;;;;;;9.57;7.63;;;19.90;99.90;;;;;;5042268;28;20586;-68
2023/07/24 04:00:51;;;;;;;10.60;8.10;;;20.00;99.90;;;;;;5042542;28;20224;-68
2023/07/24 04:03:16;;;;;;;10.70;8.40;;;20.00;99.90;;;;;;5040677;28;20220;-68
2023/07/24 04:05:42;;;;;;;10.33;8.20;;;20.00;99.90;;;;;;5040757;28;20171;-68
2023/07/24 04:08:08;;;;;;;9.50;7.93;;;20.00;99.90;;;;;;5040607;28;20261;-69
2023/07/24 04:10:33;;;;;;;9.53;7.80;;;20.00;99.90;;;;;;5043337;28;20216;-69
2023/07/24 04:12:59;;;;;;;9.70;8.33;;;20.10;99.90;;;;;;5039232;28;20167;-68
2023/07/24 04:15:24;;;;;;;9.50;8.17;;;20.20;99.90;;;;;;5041717;28;20179;-69
2023/07/24 04:17:50;;;;;;;9.40;7.20;;;20.10;99.90;;;;;;5039993;28;20207;-68
2023/07/24 04:20:15;;;;;;;9.23;7.83;;;20.10;99.90;;;;;;5043409;28;20166;-68
2023/07/24 04:22:41;;;;;;;9.87;8.53;;;20.10;99.90;;;;;;5044001;28;20175;-68
2023/07/24 04:25:07;;;;;;;9.03;7.63;;;20.10;99.90;;;;;;5041215;28;20248;-72
2023/07/24 04:27:32;;;;;;;10.10;9.07;;;20.30;99.90;;;;;;5040325;28;20252;-68
2023/07/24 04:29:58;;;;;;;8.60;7.53;;;20.30;99.90;;;;;;5045249;28;20409;-68
2023/07/24 04:32:26;;;;;;;10.93;8.43;;;20.40;99.90;;;;;;5044787;28;20171;-69
2023/07/24 04:34:52;;;;;;;9.23;8.17;;;20.50;99.90;;;;;;5040723;28;20250;-68
2023/07/24 04:37:17;;;;;;;9.43;8.00;;;20.70;99.90;;;;;;5044598;28;20983;-68
2023/07/24 04:39:43;;;;;;;10.43;8.53;;;20.70;99.90;;;;;;5045096;28;20617;-68
2023/07/24 04:42:08;;;;;;;9.93;8.00;;;20.80;99.90;;;;;;5043796;28;20205;-69
2023/07/24 04:44:34;;;;;;;9.93;8.17;;;20.90;99.90;;;;;;5044336;28;20205;-68
2023/07/24 04:47:01;;;;;;;12.03;8.73;;;20.90;99.90;;;;;;5044835;28;20167;-69
2023/07/24 04:49:29;;;;;;;10.80;8.50;;;20.90;99.90;;;;;;5045200;28;20199;-68
2023/07/24 04:51:54;;;;;;;9.33;8.30;;;20.90;99.90;;;;;;5044574;28;20413;-69
2023/07/24 04:54:20;;;;;;;11.93;8.90;;;20.90;99.90;;;;;;5044334;28;20504;-69
2023/07/24 04:56:45;;;;;;;10.77;8.70;;;20.90;99.90;;;;;;5043743;28;20176;-68
2023/07/24 04:59:11;;;;;;;9.43;8.10;;;20.90;99.90;;;;;;5045877;28;20193;-67
2023/07/24 05:01:37;;;;;;;10.07;8.10;;;20.90;99.90;;;;;;5045371;28;20275;-68
2023/07/24 05:04:02;;;;;;;9.67;7.50;;;21.00;99.90;;;;;;5044001;28;20622;-68
2023/07/24 05:06:28;;;;;;;9.40;7.80;;;21.00;99.90;;;;;;5042875;28;20176;-68
2023/07/24 05:08:54;;;;;;;12.17;9.83;;;21.20;99.90;;;;;;5047671;28;20273;-68
2023/07/24 05:11:19;;;;;;;10.47;8.13;;;21.20;99.90;;;;;;5044129;28;20665;-68
2023/07/24 05:13:45;;;;;;;8.70;7.60;;;21.30;99.90;;;;;;5043274;28;20545;-69
2023/07/24 05:16:10;;;;;;;8.67;7.30;;;21.40;99.90;;;;;;5046315;28;20179;-68
2023/07/24 05:18:36;;;;;;;10.17;8.53;;;21.50;99.90;;;;;;5044346;28;20218;-68
2023/07/24 05:21:02;;;;;;;8.77;7.40;;;21.60;99.90;;;;;;5042795;28;20267;-68
2023/07/24 05:23:27;;;;;;;9.20;7.93;;;21.70;99.90;;;;;;5045032;28;20175;-68
2023/07/24 05:26:00;;;;;;;9.73;7.87;;;21.80;99.90;;;;;;5044572;28;20190;-68
2023/07/24 05:28:30;;;;;;;9.03;8.13;;;21.80;99.90;;;;;;5044103;28;20190;-67
2023/07/24 05:31:00;;;;;;;10.07;8.53;;;21.90;99.90;;;;;;5043428;28;20453;-69
2023/07/24 05:33:26;;;;;;;9.80;8.57;;;21.90;99.90;;;;;;5044446;28;20501;-68
2023/07/24 05:35:51;;;;;;;9.43;7.73;;;21.70;99.90;;;;;;5044963;28;20493;-68
2023/07/24 05:38:17;;;;;;;9.57;7.70;;;21.70;99.90;;;;;;5042704;28;20286;-68
2023/07/24 05:40:42;;;;;;;12.23;8.20;;;21.70;99.90;;;;;;5045040;28;20269;-67
2023/07/24 05:43:08;;;;;;;8.87;7.23;;;21.70;99.90;;;;;;5042464;28;20178;-68
2023/07/24 05:45:33;;;;;;;11.50;8.07;;;21.70;99.90;;;;;;5043576;28;20183;-68
2023/07/24 05:47:59;;;;;;;9.80;7.97;;;21.70;99.90;;;;;;5042367;28;20226;-68
2023/07/24 05:50:24;;;;;;;9.67;8.20;;;21.80;99.90;;;;;;5044617;28;20166;-68
2023/07/24 05:52:50;;;;;;;11.37;8.93;;;21.80;99.90;;;;;;5042947;28;20673;-68
2023/07/24 05:55:15;;;;;;;11.20;8.23;;;22.00;99.90;;;;;;5041034;28;20179;-69
2023/07/24 05:57:41;;;;;;;10.10;7.67;;;22.10;99.90;;;;;;5045513;28;20190;-68
2023/07/24 06:00:07;;;;;;;9.33;7.90;;;22.10;99.90;;;;;;5042382;28;20170;-69
2023/07/24 06:02:33;;;;;;;10.83;8.50;;;22.10;99.90;;;;;;5041881;28;20244;-69
2023/07/24 06:04:58;;;;;;;10.90;8.40;;;22.10;99.90;;;;;;5041519;28;20403;-67
2023/07/24 06:07:24;;;;;;;10.00;8.47;;;22.20;99.90;;;;;;5043885;28;20200;-68
2023/07/24 06:09:50;;;;;;;11.00;8.80;;;22.30;99.90;;;;;;5043100;28;20175;-69
2023/07/24 06:12:15;;;;;;;13.83;8.80;;;22.30;99.90;;;;;;5042949;28;20577;-68
2023/07/24 06:14:41;;;;;;;10.73;8.67;;;22.30;99.90;;;;;;5037292;28;20452;-67
2023/07/24 06:17:07;;;;;;;9.73;8.70;;;22.20;99.90;;;;;;5041656;28;20172;-68
2023/07/24 06:19:32;;;;;;;10.80;8.60;;;22.20;99.90;;;;;;5077056;22;20309;-66
2023/07/24 06:21:58;;;;;;;11.63;8.80;;;22.20;99.90;;;;;;5052444;28;20251;-68
2023/07/24 06:24:23;;;;;;;11.20;9.27;;;22.30;99.90;;;;;;5053649;28;20610;-68
2023/07/24 06:26:49;;;;;;;10.67;8.90;;;22.40;99.90;;;;;;5053747;28;20163;-68
2023/07/24 06:29:15;;;;;;;10.77;9.60;;;22.40;99.90;;;;;;5044711;28;20721;-68
2023/07/24 06:31:41;;;;;;;10.70;8.63;;;22.40;99.90;;;;;;5041870;28;20438;-69
2023/07/24 06:34:07;;;;;;;8.60;7.60;;;22.50;99.90;;;;;;5042723;28;20167;-67
2023/07/24 06:36:32;;;;;;;10.10;8.50;;;22.70;99.90;;;;;;5043748;28;20224;-68
2023/07/24 06:38:58;;;;;;;10.20;7.97;;;22.70;99.90;;;;;;5040939;28;20277;-68
2023/07/24 06:41:23;;;;;;;10.50;8.77;;;22.70;99.90;;;;;;5043741;28;20194;-67
2023/07/24 06:43:49;;;;;;;13.00;9.70;;;22.90;99.90;;;;;;5041307;28;20553;-68
2023/07/24 06:46:15;;;;;;;12.60;8.47;;;23.10;99.90;;;;;;5044700;28;20175;-68
2023/07/24 06:48:40;;;;;;;13.60;8.27;;;23.10;99.90;;;;;;5043017;28;20428;-68
2023/07/24 06:51:06;;;;;;;9.83;8.67;;;23.10;99.90;;;;;;5045365;28;20238;-69
2023/07/24 06:53:31;;;;;;;10.27;8.63;;;23.30;99.90;;;;;;5041283;28;20200;-68
2023/07/24 06:55:57;;;;;;;11.50;9.80;;;23.10;99.90;;;;;;5043374;28;20163;-66
2023/07/24 06:58:23;;;;;;;9.30;8.13;;;23.10;99.90;;;;;;5044145;28;20274;-67
2023/07/24 07:00:48;;;;;;;9.90;8.87;;;23.20;99.90;;;;;;5043886;28;20302;-68
2023/07/24 07:03:14;;;;;;;9.53;7.90;;;23.30;99.90;;;;;;5042556;28;20170;-67
2023/07/24 07:05:39;;;;;;;9.27;8.10;;;23.20;99.90;;;;;;5042027;28;20221;-67
2023/07/24 07:08:05;;;;;;;9.53;8.53;;;23.40;99.90;;;;;;5044033;28;20187;-68
2023/07/24 07:10:31;;;;;;;10.97;8.53;;;23.50;99.90;;;;;;5043576;28;20167;-67
2023/07/24 07:12:57;;;;;;;9.73;8.70;;;23.50;99.90;;;;;;5042533;28;20167;-67
2023/07/24 07:15:22;;;;;;;10.03;8.57;;;23.60;99.90;;;;;;5043283;28;20404;-67
2023/07/24 07:17:48;;;;;;;12.80;9.50;;;23.70;99.90;;;;;;5041590;28;20170;-67
2023/07/24 07:20:14;;;;;;;10.10;8.60;;;23.70;99.90;;;;;;5042817;28;20188;-67
2023/07/24 07:22:39;;;;;;;10.80;8.23;;;23.50;99.90;;;;;;5043853;28;20744;-67
2023/07/24 07:25:05;;;;;;;9.50;8.50;;;23.50;99.90;;;;;;5043698;28;20171;-67
2023/07/24 07:27:30;;;;;;;10.03;9.00;;;23.70;99.90;;;;;;5041137;28;20163;-67
2023/07/24 07:29:56;;;;;;;9.67;8.60;;;23.50;99.90;;;;;;5041439;28;20528;-67
2023/07/24 07:32:22;;;;;;;10.20;8.40;;;23.40;99.90;;;;;;5044233;28;20178;-67
2023/07/24 07:34:47;;;;;;;13.20;8.93;;;23.30;99.90;;;;;;5043535;28;20179;-67
2023/07/24 07:37:13;;;;;;;10.60;8.93;;;23.40;99.90;;;;;;5041137;28;20637;-67
2023/07/24 07:39:38;;;;;;;12.63;9.43;;;23.10;99.90;;;;;;5043199;28;20232;-66
2023/07/24 07:42:04;;;;;;;10.97;8.60;;;23.10;99.90;;;;;;5040547;28;20191;-66
2023/07/24 07:44:30;;;;;;;10.93;8.70;;;23.00;99.90;;;;;;5041957;28;20195;-67
2023/07/24 07:46:56;;;;;;;10.20;7.80;;;23.10;99.90;;;;;;5044998;28;20163;-67
2023/07/24 07:49:22;;;;;;;9.27;7.87;;;23.10;99.90;;;;;;5041626;28;20186;-67
2023/07/24 07:51:47;;;;;;;10.20;9.10;;;23.20;99.90;;;;;;5041375;28;20397;-67
2023/07/24 07:54:13;;;;;;;10.50;8.57;;;23.50;99.90;;;;;;5041351;28;20172;-68
2023/07/24 07:56:39;;;;;;;10.20;9.03;;;23.40;99.90;;;;;;5046325;28;20552;-68
2023/07/24 07:59:04;;;;;;;11.70;8.77;;;23.50;99.90;;;;;;5046488;28;20653;-67
2023/07/24 08:01:30;;;;;;;10.10;8.93;;;23.30;99.90;;;;;;5042112;28;20195;-67
2023/07/24 08:03:56;;;;;;;10.40;8.13;;;23.50;99.90;;;;;;5048211;28;20605;-67
2023/07/24 08:06:22;;;;;;;9.70;8.80;;;23.60;99.90;;;;;;5046439;28;20412;-65
2023/07/24 08:08:47;;;;;;;13.93;8.70;;;23.50;99.90;;;;;;5047872;28;20680;-67
2023/07/24 08:11:13;;;;;;;10.70;9.00;;;23.30;99.90;;;;;;5046558;28;20166;-67
2023/07/24 08:13:38;;;;;;;9.50;8.37;;;23.10;99.90;;;;;;5045614;28;20179;-67
2023/07/24 08:16:05;;;;;;;10.27;8.80;;;23.10;99.90;;;;;;5044349;28;20217;-67
2023/07/24 08:18:30;;;;;;;10.20;8.80;;;23.10;99.90;;;;;;5047233;28;20245;-67
2023/07/24 08:20:56;;;;;;;13.30;9.40;;;22.80;99.90;;;;;;5047362;28;20473;-67
2023/07/24 08:23:21;;;;;;;12.37;9.07;;;22.90;99.90;;;;;;5046254;28;20170;-68
2023/07/24 08:25:56;;;;;;;12.97;9.27;;;23.00;99.90;;;;;;5044451;28;20168;-67
2023/07/24 08:28:22;;;;;;;10.63;8.60;;;23.10;99.90;;;;;;5040923;28;20299;-68
2023/07/24 08:30:57;;;;;;;16.77;12.37;;;23.20;99.90;;;;;;5045911;28;20496;-68
2023/07/24 08:33:23;;;;;;;11.80;9.80;;;22.90;99.90;;;;;;5046887;28;20169;-68
2023/07/24 08:36:05;;;;;;;11.60;10.40;;;22.70;99.90;;;;;;5045919;28;20401;-67
2023/07/24 08:38:30;;;;;;;11.23;9.67;;;22.60;99.90;;;;;;5043728;28;20531;-68
2023/07/24 08:41:07;;;;;;;12.93;9.97;;;22.30;99.90;;;;;;5045445;28;20540;-68
2023/07/24 08:43:35;;;;;;;12.83;10.27;;;22.40;99.90;;;;;;5045186;28;20171;-67
2023/07/24 08:46:02;;;;;;;11.30;9.63;;;22.40;99.90;;;;;;5047258;28;20986;-68
2023/07/24 08:48:39;;;;;;;11.40;9.37;;;22.60;99.90;;;;;;5042855;28;20429;-68
2023/07/24 08:51:09;;;;;;;10.63;8.90;;;22.50;99.90;;;;;;5043161;28;20796;-67
2023/07/24 08:53:36;;;;;;;12.43;9.63;;;22.40;99.90;;;;;;5044141;28;20418;-67
2023/07/24 08:56:04;;;;;;;11.10;9.33;;;22.40;99.90;;;;;;5045605;28;20425;-67
2023/07/24 08:58:29;;;;;;;11.77;9.83;;;22.40;99.90;;;;;;5046563;28;20417;-68
2023/07/24 09:00:59;;;;;;;10.67;8.93;;;22.40;99.90;;;;;;5045048;28;20442;-67
2023/07/24 09:03:25;;;;;;;9.80;8.30;;;22.50;99.90;;;;;;5044732;28;20193;-67
2023/07/24 09:05:51;;;;;;;9.80;8.53;;;22.60;99.90;;;;;;5044239;28;20401;-67
2023/07/24 09:08:16;;;;;;;10.03;8.13;;;22.50;99.90;;;;;;5043259;28;20425;-67
2023/07/24 09:10:42;;;;;;;10.17;8.17;;;22.40;99.90;;;;;;5039602;28;20164;-67
2023/07/24 09:13:08;;;;;;;11.20;8.03;;;22.50;99.90;;;;;;5044792;28;20224;-67
2023/07/24 09:15:41;;;;;;;11.50;7.90;;;22.70;99.90;;;;;;5043662;28;20171;-66
2023/07/24 09:18:06;;;;;;;10.27;8.20;;;22.70;99.90;;;;;;5045972;28;20202;-68
2023/07/24 09:20:39;;;;;;;8.77;7.60;;;22.60;99.90;;;;;;5043323;28;20416;-68
2023/07/24 09:23:05;;;;;;;10.60;8.80;;;22.80;99.90;;;;;;5043636;28;20526;-67
2023/07/24 09:25:31;;;;;;;9.70;7.57;;;22.90;99.90;;;;;;5044530;28;20438;-67
2023/07/24 09:28:00;;;;;;;11.47;7.27;;;23.00;99.90;;;;;;5046465;28;20193;-67
2023/07/24 09:30:26;;;;;;;8.63;7.27;;;23.30;99.90;;;;;;5039669;28;20494;-67
2023/07/24 09:32:53;;;;;;;6.90;6.20;;;23.30;99.90;;;;;;5046105;28;20839;-67
2023/07/24 09:35:19;;;;;;;7.37;5.97;;;23.50;99.90;;;;;;5044238;28;20163;-68
2023/07/24 09:37:45;;;;;;;8.23;6.30;;;23.40;99.90;;;;;;5042361;28;20409;-67
2023/07/24 09:40:13;;;;;;;6.63;5.30;;;23.50;99.90;;;;;;5043752;28;20517;-67
2023/07/24 09:42:42;;;;;;;9.00;6.93;;;23.70;99.90;;;;;;5042214;28;20457;-67
2023/07/24 09:45:08;;;;;;;6.37;5.30;;;23.50;99.90;;;;;;5045345;28;20416;-68
2023/07/24 09:47:35;;;;;;;7.60;6.03;;;23.60;99.90;;;;;;5044921;28;20904;-68
2023/07/24 09:50:03;;;;;;;5.97;5.37;;;23.70;99.90;;;;;;5043545;28;20531;-67
2023/07/24 09:52:30;;;;;;;7.00;6.00;;;23.90;99.90;;;;;;5046213;28;20416;-68
2023/07/24 09:55:03;;;;;;;9.57;6.90;;;23.50;99.90;;;;;;5043209;28;20398;-68
2023/07/24 09:57:29;;;;;;;9.53;7.50;;;23.10;99.90;;;;;;5046081;28;20382;-66
2023/07/24 09:59:57;;;;;;;10.50;7.40;;;23.00;99.90;;;;;;5042354;28;20780;-67
2023/07/24 10:02:23;;;;;;;8.10;6.67;;;22.70;99.90;;;;;;5042689;28;20446;-67
2023/07/24 10:04:49;;;;;;;8.97;6.87;;;22.80;99.90;;;;;;5046040;28;20432;-68
2023/07/24 10:07:15;;;;;;;9.70;6.87;;;22.90;99.90;;;;;;5046226;28;20401;-67
2023/07/24 10:09:43;;;;;;;7.87;7.07;;;23.10;99.90;;;;;;5042463;28;20425;-67
2023/07/24 10:12:09;;;;;;;6.77;6.13;;;23.20;99.90;;;;;;5042947;28;20408;-67
2023/07/24 10:14:36;;;;;;;6.50;5.70;;;23.20;99.90;;;;;;5043170;28;20888;-68
2023/07/24 10:17:02;;;;;;;7.40;5.50;;;23.40;99.90;;;;;;5045671;28;20171;-67
2023/07/24 10:19:42;;;;;;;8.50;6.90;;;23.50;99.90;;;;;;5043043;28;20463;-67
2023/07/24 10:22:16;;;;;;;8.03;7.13;;;23.40;99.90;;;;;;5044072;28;20337;-67
2023/07/24 10:24:41;;;;;;;9.23;7.07;;;23.20;99.90;;;;;;5044504;28;20399;-67
2023/07/24 10:27:08;;;;;;;9.80;6.53;;;22.90;99.90;;;;;;5043782;28;20851;-67
2023/07/24 10:29:36;;;;;;;10.17;7.43;;;22.70;99.90;;;;;;5042016;28;20421;-68
2023/07/24 10:32:01;;;;;;;8.30;6.73;;;22.40;99.90;;;;;;5044513;28;20225;-67
2023/07/24 10:34:37;;;;;;;10.37;7.57;;;22.30;99.90;;;;;;5043925;28;20909;-67
2023/07/24 10:37:03;;;;;;;10.20;7.43;;;22.30;99.90;;;;;;5043311;28;20169;-67
2023/07/24 10:39:39;;;;;;;8.33;6.80;;;22.30;99.90;;;;;;5041503;28;20524;-68
2023/07/24 10:42:09;;;;;;;8.17;7.37;;;22.20;99.90;;;;;;5044859;28;20503;-67
2023/07/24 10:44:35;;;;;;;8.30;7.50;;;22.40;99.90;;;;;;5040423;28;20765;-68
2023/07/24 10:47:01;;;;;;;9.03;8.13;;;22.40;99.90;;;;;;5038318;28;20405;-68
2023/07/24 10:49:27;;;;;;;8.90;8.00;;;22.30;99.90;;;;;;5043023;28;20191;-67
2023/07/24 10:51:57;;;;;;;9.03;7.00;;;22.40;99.90;;;;;;5043482;28;20471;-68
2023/07/24 10:54:22;;;;;;;8.17;7.30;;;22.40;99.90;;;;;;5044739;28;20228;-66
2023/07/24 10:56:48;;;;;;;9.20;7.63;;;22.20;99.90;;;;;;5040427;28;20893;-67
2023/07/24 10:59:14;;;;;;;9.60;7.40;;;22.30;99.90;;;;;;5041980;28;20194;-67
2023/07/24 11:01:40;;;;;;;10.47;8.40;;;22.10;99.90;;;;;;5044392;28;20557;-68
2023/07/24 11:04:06;;;;;;;10.10;8.53;;;22.00;99.90;;;;;;5041413;28;20856;-67
2023/07/24 11:06:32;;;;;;;10.87;7.77;;;21.70;99.90;;;;;;5043427;28;20482;-67
2023/07/24 11:09:00;;;;;;;8.60;7.70;;;21.40;99.90;;;;;;5039492;28;20525;-68
2023/07/24 11:11:30;;;;;;;9.53;7.70;;;21.10;99.90;;;;;;5039632;28;20175;-67
2023/07/24 11:13:56;;;;;;;9.53;8.40;;;21.00;99.90;;;;;;5037112;28;20402;-67
2023/07/24 11:16:22;;;;;;;9.20;7.87;;;21.00;99.90;;;;;;5042601;28;20410;-67
2023/07/24 11:18:49;;;;;;;8.97;8.00;;;20.90;99.90;;;;;;5043340;28;20466;-68
2023/07/24 11:21:16;;;;;;;9.67;7.87;;;20.90;99.90;;;;;;5043380;28;20289;-68
2023/07/24 11:24:00;;;;;;;8.03;7.23;;;20.80;99.90;;;;;;5044427;28;20417;-67
2023/07/24 11:26:27;;;;;;;11.33;6.40;;;20.80;99.90;;;;;;5038049;28;20880;-67
2023/07/24 11:28:53;;;;;;;10.27;7.90;;;20.80;99.90;;;;;;5043770;28;20513;-67
2023/07/24 11:31:20;;;;;;;7.63;6.83;;;21.10;99.90;;;;;;5042153;28;20410;-67
2023/07/24 11:33:47;;;;;;;8.37;7.57;;;21.20;99.90;;;;;;5044198;28;20413;-67
2023/07/24 11:36:13;;;;;;;10.50;8.00;;;21.20;99.90;;;;;;5037617;28;20402;-68
2023/07/24 11:38:38;;;;;;;10.23;8.50;;;21.20;99.90;;;;;;5039659;28;20866;-67
2023/07/24 11:41:04;;;;;;;7.70;6.70;;;21.20;99.90;;;;;;5042310;28;20484;-68
2023/07/24 11:43:30;;;;;;;8.80;7.90;;;21.40;99.90;;;;;;5042149;28;20175;-68
2023/07/24 11:45:56;;;;;;;10.37;8.80;;;22.00;99.90;;;;;;5043481;28;20398;-68
2023/07/24 11:48:24;;;;;;;10.30;7.43;;;23.60;99.90;;;;;;5043223;28;20239;-68
2023/07/24 11:50:59;;;;;;;7.30;6.00;;;24.90;99.90;;;;;;5041373;28;20243;-68
2023/07/24 11:53:29;;;;;;;8.47;7.57;;;25.10;99.90;;;;;;5042274;28;20439;-68
2023/07/24 11:56:00;;;;;;;8.43;6.93;;;24.90;99.90;;;;;;5037516;28;20497;-68
2023/07/24 11:58:27;;;;;;;8.30;6.90;;;24.10;99.90;;;;;;5043591;28;20527;-68
2023/07/24 12:00:53;;;;;;;7.83;7.00;;;23.50;99.90;;;;;;5042274;28;20847;-68
2023/07/24 12:03:20;;;;;;;9.50;6.60;;;22.60;99.90;;;;;;5041840;28;20405;-69
2023/07/24 12:05:47;;;;;;;8.87;7.23;;;22.40;99.90;;;;;;5041278;28;20172;-68
2023/07/24 12:08:14;;;;;;;8.53;7.33;;;22.30;99.90;;;;;;5044414;28;20849;-67
2023/07/24 12:10:40;;;;;;;8.37;7.27;;;22.10;99.90;;;;;;5041991;28;20416;-68
2023/07/24 12:13:06;;;;;;;8.38;7.03;;;22.20;99.90;;;;;;5042056;28;20410;-70
2023/07/24 12:15:37;;;;;;;7.80;6.80;;;22.40;99.90;;;;;;5040071;28;20170;-68
2023/07/24 12:18:04;;;;;;;10.13;7.77;;;22.60;99.90;;;;;;5041459;28;20502;-69
2023/07/24 12:20:30;;;;;;;7.27;6.50;;;22.80;99.90;;;;;;5041968;28;20406;-70
2023/07/24 12:22:56;;;;;;;6.70;6.10;;;22.70;99.90;;;;;;5041817;28;20528;-71
2023/07/24 12:25:22;;;;;;;7.63;6.57;;;22.80;99.90;;;;;;5036258;28;20485;-70
2023/07/24 12:27:48;;;;;;;8.30;6.93;;;23.00;99.90;;;;;;5042725;28;20398;-69
2023/07/24 12:30:14;;;;;;;7.90;7.07;;;23.10;99.90;;;;;;5042990;28;20397;-70
2023/07/24 12:32:40;;;;;;;7.33;6.63;;;23.50;99.90;;;;;;5043029;28;20393;-70
2023/07/24 12:35:08;;;;;;;8.23;7.40;;;23.80;99.90;;;;;;5041476;28;20825;-70
2023/07/24 12:37:33;;;;;;;7.57;6.80;;;23.90;99.90;;;;;;5039335;28;20214;-70
2023/07/24 12:39:59;;;;;;;9.27;7.27;;;24.10;99.90;;;;;;5040348;28;20398;-68